Terminal Aerodrome Forecast
Issued by NWS Charleston, SC

Home | Current Version | Previous Version | Text Only | Print | Product List | Glossary On
Versions: 1 2 3 4 5 6 7 8 9 10 11 12 13 14 15 16 17 18 19 20 21 22 23 24 25 26 27 28 29 30 31
000
FTUS42 KCHS 301857 AAB
TAFCHS
TAF AMD
KCHS 301857Z 3019/0118 15012G17KT P6SM SCT035 BKN250
      TEMPO 3019/3020 BKN030
     FM302330 14009KT P6SM FEW040 BKN250
     FM010600 14005KT P6SM SCT009 BKN015
     FM011400 18009KT P6SM SCT015 BKN035=

USA.gov is the U.S. government's official web portal to all federal, state and local government web resources and services.